sensor_id;sensor_type;location;lat;lon;timestamp;pressure;altitude;pressure_sealevel;temperature;humidity
46045;BME280;31781;54.094;13.428;2022-07-21T00:08:09;101532.22;;;28.21;35.63
46045;BME280;31781;54.094;13.428;2022-07-21T00:13:12;101533.53;;;28.10;35.87
46045;BME280;31781;54.094;13.428;2022-07-21T00:18:15;101538.37;;;28.04;36.04
46045;BME280;31781;54.094;13.428;2022-07-21T00:23:25;101530.34;;;27.97;36.41
46045;BME280;31781;54.094;13.428;2022-07-21T00:28:28;101531.09;;;27.89;36.37
46045;BME280;31781;54.094;13.428;2022-07-21T00:33:30;101518.63;;;27.82;36.44
46045;BME280;31781;54.094;13.428;2022-07-21T00:38:39;101516.22;;;27.75;36.51
46045;BME280;31781;54.094;13.428;2022-07-21T00:43:46;101516.59;;;27.69;36.43
46045;BME280;31781;54.094;13.428;2022-07-21T00:48:49;101506.94;;;27.61;36.92
46045;BME280;31781;54.094;13.428;2022-07-21T00:53:58;101510.97;;;27.55;37.10
46045;BME280;31781;54.094;13.428;2022-07-21T00:59:01;101504.09;;;27.47;36.84
46045;BME280;31781;54.094;13.428;2022-07-21T01:04:04;101495.53;;;27.39;37.30
46045;BME280;31781;54.094;13.428;2022-07-21T01:09:12;101490.94;;;27.29;37.29
46045;BME280;31781;54.094;13.428;2022-07-21T01:14:15;101484.06;;;27.22;36.97
46045;BME280;31781;54.094;13.428;2022-07-21T01:19:19;101489.47;;;27.13;37.43
46045;BME280;31781;54.094;13.428;2022-07-21T01:24:27;101487.06;;;27.06;37.28
46045;BME280;31781;54.094;13.428;2022-07-21T01:29:30;101487.75;;;26.98;37.15
46045;BME280;31781;54.094;13.428;2022-07-21T01:34:32;101492.34;;;26.89;37.46
46045;BME280;31781;54.094;13.428;2022-07-21T01:39:40;101482.66;;;26.82;37.17
46045;BME280;31781;54.094;13.428;2022-07-21T01:44:43;101471.53;;;26.77;37.06
46045;BME280;31781;54.094;13.428;2022-07-21T01:55:05;101466.56;;;26.74;36.90
46045;BME280;31781;54.094;13.428;2022-07-21T02:00:09;101453.69;;;26.54;37.76
46045;BME280;31781;54.094;13.428;2022-07-21T02:05:12;101443.09;;;26.75;37.23
46045;BME280;31781;54.094;13.428;2022-07-21T02:10:20;101439.25;;;26.71;37.16
46045;BME280;31781;54.094;13.428;2022-07-21T02:15:23;101427.38;;;26.60;37.06
46045;BME280;31781;54.094;13.428;2022-07-21T02:20:26;101436.09;;;26.53;37.33
46045;BME280;31781;54.094;13.428;2022-07-21T02:25:34;101427.25;;;26.46;37.45
46045;BME280;31781;54.094;13.428;2022-07-21T02:30:38;101431.53;;;26.39;37.39
46045;BME280;31781;54.094;13.428;2022-07-21T02:35:41;101433.03;;;26.31;37.85
46045;BME280;31781;54.094;13.428;2022-07-21T02:40:50;101424.19;;;26.24;37.92
46045;BME280;31781;54.094;13.428;2022-07-21T02:45:58;101430.97;;;26.18;37.71
46045;BME280;31781;54.094;13.428;2022-07-21T02:51:00;101427.69;;;26.11;38.17
46045;BME280;31781;54.094;13.428;2022-07-21T02:56:09;101438.03;;;26.05;38.19
46045;BME280;31781;54.094;13.428;2022-07-21T03:01:12;101440.34;;;25.98;38.03
46045;BME280;31781;54.094;13.428;2022-07-21T03:06:15;101450.50;;;25.89;38.52
46045;BME280;31781;54.094;13.428;2022-07-21T03:11:23;101443.87;;;25.80;38.72
46045;BME280;31781;54.094;13.428;2022-07-21T03:16:26;101438.38;;;25.75;38.20
46045;BME280;31781;54.094;13.428;2022-07-21T03:21:29;101435.09;;;25.68;38.87
46045;BME280;31781;54.094;13.428;2022-07-21T03:26:37;101441.56;;;25.63;38.99
46045;BME280;31781;54.094;13.428;2022-07-21T03:31:40;101441.59;;;25.58;38.63
46045;BME280;31781;54.094;13.428;2022-07-21T03:36:42;101422.94;;;25.54;39.26
46045;BME280;31781;54.094;13.428;2022-07-21T03:41:51;101414.31;;;25.50;39.08
46045;BME280;31781;54.094;13.428;2022-07-21T03:46:53;101418.81;;;25.46;38.78
46045;BME280;31781;54.094;13.428;2022-07-21T03:51:56;101416.59;;;25.43;39.31
46045;BME280;31781;54.094;13.428;2022-07-21T03:57:04;101403.81;;;25.42;39.33
46045;BME280;31781;54.094;13.428;2022-07-21T04:02:07;101412.19;;;25.42;38.85
46045;BME280;31781;54.094;13.428;2022-07-21T04:07:10;101415.47;;;25.49;39.27
46045;BME280;31781;54.094;13.428;2022-07-21T04:12:19;101419.06;;;25.50;39.29
46045;BME280;31781;54.094;13.428;2022-07-21T04:17:22;101418.53;;;25.53;38.84
46045;BME280;31781;54.094;13.428;2022-07-21T04:22:25;101419.87;;;25.55;39.58
46045;BME280;31781;54.094;13.428;2022-07-21T04:27:34;101422.91;;;25.59;39.53
46045;BME280;31781;54.094;13.428;2022-07-21T04:32:37;101409.22;;;25.62;39.09
46045;BME280;31781;54.094;13.428;2022-07-21T04:37:39;101413.94;;;25.67;39.55
46045;BME280;31781;54.094;13.428;2022-07-21T04:42:48;101409.44;;;25.71;39.53
46045;BME280;31781;54.094;13.428;2022-07-21T04:47:52;101398.75;;;25.78;39.12
46045;BME280;31781;54.094;13.428;2022-07-21T04:52:55;101392.53;;;25.86;39.35
46045;BME280;31781;54.094;13.428;2022-07-21T04:58:03;101398.00;;;25.96;39.45
46045;BME280;31781;54.094;13.428;2022-07-21T05:03:06;101400.66;;;26.06;38.94
46045;BME280;31781;54.094;13.428;2022-07-21T05:08:09;101407.78;;;26.17;39.27
46045;BME280;31781;54.094;13.428;2022-07-21T05:13:17;101408.53;;;26.28;39.38
46045;BME280;31781;54.094;13.428;2022-07-21T05:18:20;101404.19;;;26.41;38.90
46045;BME280;31781;54.094;13.428;2022-07-21T05:23:22;101415.75;;;26.53;39.39
46045;BME280;31781;54.094;13.428;2022-07-21T05:28:31;101412.50;;;26.64;39.36
46045;BME280;31781;54.094;13.428;2022-07-21T05:33:49;101413.13;;;26.80;38.74
46045;BME280;31781;54.094;13.428;2022-07-21T05:38:52;101414.53;;;26.83;39.14
46045;BME280;31781;54.094;13.428;2022-07-21T05:43:55;101402.09;;;26.94;39.04
46045;BME280;31781;54.094;13.428;2022-07-21T05:49:03;101401.53;;;27.10;38.84
46045;BME280;31781;54.094;13.428;2022-07-21T05:54:06;101393.75;;;27.26;38.67
46045;BME280;31781;54.094;13.428;2022-07-21T05:59:09;101385.63;;;27.43;38.48
46045;BME280;31781;54.094;13.428;2022-07-21T06:04:17;101391.19;;;27.62;38.27
46045;BME280;31781;54.094;13.428;2022-07-21T06:09:20;101388.81;;;27.83;37.92
46045;BME280;31781;54.094;13.428;2022-07-21T06:14:26;101383.66;;;28.03;38.01
46045;BME280;31781;54.094;13.428;2022-07-21T06:19:34;101368.69;;;28.27;37.64
46045;BME280;31781;54.094;13.428;2022-07-21T06:24:37;101362.53;;;28.52;37.09
46045;BME280;31781;54.094;13.428;2022-07-21T06:29:40;101354.19;;;28.74;36.98
46045;BME280;31781;54.094;13.428;2022-07-21T06:34:48;101351.59;;;29.00;36.32
46045;BME280;31781;54.094;13.428;2022-07-21T06:40:07;101358.63;;;29.33;36.56
46045;BME280;31781;54.094;13.428;2022-07-21T06:45:10;101355.09;;;29.50;36.05
46045;BME280;31781;54.094;13.428;2022-07-21T06:50:12;101351.41;;;29.72;35.48
46045;BME280;31781;54.094;13.428;2022-07-21T06:55:21;101359.78;;;29.94;34.96
46045;BME280;31781;54.094;13.428;2022-07-21T07:00:24;101373.09;;;30.19;34.68
46045;BME280;31781;54.094;13.428;2022-07-21T07:05:27;101364.56;;;30.41;34.10
46045;BME280;31781;54.094;13.428;2022-07-21T07:10:35;101381.84;;;30.66;33.63
46045;BME280;31781;54.094;13.428;2022-07-21T07:20:56;101388.31;;;31.18;34.01
46045;BME280;31781;54.094;13.428;2022-07-21T07:25:59;101385.16;;;31.36;33.25
46045;BME280;31781;54.094;13.428;2022-07-21T07:31:02;101387.94;;;31.62;32.35
46045;BME280;31781;54.094;13.428;2022-07-21T07:36:20;101374.78;;;31.92;33.52
46045;BME280;31781;54.094;13.428;2022-07-21T07:41:25;101386.94;;;32.05;32.10
46045;BME280;31781;54.094;13.428;2022-07-21T07:46:28;101383.56;;;32.28;32.17
46045;BME280;31781;54.094;13.428;2022-07-21T07:51:36;101386.22;;;32.54;31.07
46045;BME280;31781;54.094;13.428;2022-07-21T07:56:39;101378.44;;;32.80;31.98
46045;BME280;31781;54.094;13.428;2022-07-21T08:01:58;101365.09;;;33.10;31.69
46045;BME280;31781;54.094;13.428;2022-07-21T08:07:01;101371.06;;;33.30;31.10
46045;BME280;31781;54.094;13.428;2022-07-21T08:12:08;101368.78;;;33.56;29.85
46045;BME280;31781;54.094;13.428;2022-07-21T08:17:16;101376.63;;;33.83;28.79
46045;BME280;31781;54.094;13.428;2022-07-21T08:22:18;101384.66;;;34.05;29.48
46045;BME280;31781;54.094;13.428;2022-07-21T08:27:38;101374.69;;;34.32;30.56
46045;BME280;31781;54.094;13.428;2022-07-21T08:32:40;101368.78;;;34.49;29.47
46045;BME280;31781;54.094;13.428;2022-07-21T08:37:53;101372.28;;;34.70;27.76
46045;BME280;31781;54.094;13.428;2022-07-21T08:43:02;101366.69;;;34.98;29.26
46045;BME280;31781;54.094;13.428;2022-07-21T08:48:06;101358.13;;;35.23;28.51
46045;BME280;31781;54.094;13.428;2022-07-21T08:53:09;101361.19;;;35.45;26.62
46045;BME280;31781;54.094;13.428;2022-07-21T08:58:17;101363.69;;;35.62;26.69
46045;BME280;31781;54.094;13.428;2022-07-21T09:03:21;101373.97;;;35.83;27.58
46045;BME280;31781;54.094;13.428;2022-07-21T09:08:29;101379.81;;;36.05;26.43
46045;BME280;31781;54.094;13.428;2022-07-21T09:13:37;101384.03;;;36.27;26.51
46045;BME280;31781;54.094;13.428;2022-07-21T09:18:49;101394.44;;;36.39;27.10
46045;BME280;31781;54.094;13.428;2022-07-21T09:24:10;101402.75;;;36.47;25.99
46045;BME280;31781;54.094;13.428;2022-07-21T09:29:18;101419.56;;;36.56;27.88
46045;BME280;31781;54.094;13.428;2022-07-21T09:34:21;101433.81;;;36.59;28.44
46045;BME280;31781;54.094;13.428;2022-07-21T09:39:49;101432.53;;;36.73;27.32
46045;BME280;31781;54.094;13.428;2022-07-21T09:44:54;101428.25;;;36.63;28.41
46045;BME280;31781;54.094;13.428;2022-07-21T09:49:58;101422.75;;;36.54;28.54
46045;BME280;31781;54.094;13.428;2022-07-21T09:55:26;101436.56;;;36.56;28.84
46045;BME280;31781;54.094;13.428;2022-07-21T10:00:29;101442.72;;;36.58;29.29
46045;BME280;31781;54.094;13.428;2022-07-21T10:05:32;101445.72;;;36.49;29.46
46045;BME280;31781;54.094;13.428;2022-07-21T10:10:41;101439.59;;;36.47;29.92
46045;BME280;31781;54.094;13.428;2022-07-21T10:16:04;101462.44;;;36.54;30.35
46045;BME280;31781;54.094;13.428;2022-07-21T10:21:14;101478.47;;;36.47;30.12
46045;BME280;31781;54.094;13.428;2022-07-21T10:26:24;101502.50;;;36.37;30.01
46045;BME280;31781;54.094;13.428;2022-07-21T10:31:26;101484.13;;;36.31;30.52
46045;BME280;31781;54.094;13.428;2022-07-21T10:36:43;101484.50;;;36.14;30.97
46045;BME280;31781;54.094;13.428;2022-07-21T10:41:53;101489.81;;;35.88;30.96
46045;BME280;31781;54.094;13.428;2022-07-21T10:46:59;101489.09;;;35.63;31.55
46045;BME280;31781;54.094;13.428;2022-07-21T10:52:04;101487.78;;;35.60;31.76
46045;BME280;31781;54.094;13.428;2022-07-21T10:57:31;101499.53;;;35.75;31.58
46045;BME280;31781;54.094;13.428;2022-07-21T11:02:34;101507.28;;;36.05;31.54
46045;BME280;31781;54.094;13.428;2022-07-21T11:08:09;101520.69;;;36.21;31.25
46045;BME280;31781;54.094;13.428;2022-07-21T11:13:19;101518.03;;;36.28;31.13
46045;BME280;31781;54.094;13.428;2022-07-21T11:18:24;101523.81;;;36.31;30.87
46045;BME280;31781;54.094;13.428;2022-07-21T11:23:34;101525.66;;;36.39;30.54
46045;BME280;31781;54.094;13.428;2022-07-21T11:28:43;101524.16;;;36.45;30.50
46045;BME280;31781;54.094;13.428;2022-07-21T11:33:47;101540.09;;;36.50;30.57
46045;BME280;31781;54.094;13.428;2022-07-21T11:39:03;101543.84;;;36.54;30.08
46045;BME280;31781;54.094;13.428;2022-07-21T11:44:22;101546.06;;;36.61;29.78
46045;BME280;31781;54.094;13.428;2022-07-21T11:54:45;101559.03;;;36.77;29.70
46045;BME280;31781;54.094;13.428;2022-07-21T11:59:49;101568.66;;;36.73;29.50
46045;BME280;31781;54.094;13.428;2022-07-21T12:04:54;101579.25;;;36.76;29.31
46045;BME280;31781;54.094;13.428;2022-07-21T12:10:05;101587.84;;;36.64;28.70
46045;BME280;31781;54.094;13.428;2022-07-21T12:15:25;101583.44;;;36.50;29.44
46045;BME280;31781;54.094;13.428;2022-07-21T12:20:31;101591.00;;;36.31;29.31
46045;BME280;31781;54.094;13.428;2022-07-21T12:25:36;101587.44;;;36.34;29.23
46045;BME280;31781;54.094;13.428;2022-07-21T12:30:47;101594.41;;;36.36;28.77
46045;BME280;31781;54.094;13.428;2022-07-21T12:35:58;101590.66;;;36.48;29.51
46045;BME280;31781;54.094;13.428;2022-07-21T12:41:01;101585.75;;;36.61;28.98
46045;BME280;31781;54.094;13.428;2022-07-21T12:46:20;101584.19;;;36.63;28.61
46045;BME280;31781;54.094;13.428;2022-07-21T12:51:39;101601.22;;;36.63;28.48
46045;BME280;31781;54.094;13.428;2022-07-21T12:56:42;101590.66;;;36.48;27.11
46045;BME280;31781;54.094;13.428;2022-07-21T13:01:45;101578.50;;;36.47;27.53
46045;BME280;31781;54.094;13.428;2022-07-21T13:06:53;101578.94;;;36.49;27.50
46045;BME280;31781;54.094;13.428;2022-07-21T13:11:56;101601.12;;;36.59;27.32
46045;BME280;31781;54.094;13.428;2022-07-21T13:16:59;101603.59;;;36.61;25.69
46045;BME280;31781;54.094;13.428;2022-07-21T13:22:07;101595.03;;;36.45;25.07
46045;BME280;31781;54.094;13.428;2022-07-21T13:27:10;101600.88;;;36.21;26.09
46045;BME280;31781;54.094;13.428;2022-07-21T13:32:13;101586.94;;;35.88;26.22
46045;BME280;31781;54.094;13.428;2022-07-21T13:37:21;101587.59;;;35.70;26.77
46045;BME280;31781;54.094;13.428;2022-07-21T13:42:29;101586.03;;;35.60;27.53
46045;BME280;31781;54.094;13.428;2022-07-21T13:47:52;101584.28;;;35.55;27.40
46045;BME280;31781;54.094;13.428;2022-07-21T13:58:18;101574.16;;;35.54;28.20
46045;BME280;31781;54.094;13.428;2022-07-21T14:03:21;101590.34;;;35.42;28.49
46045;BME280;31781;54.094;13.428;2022-07-21T14:08:24;101582.56;;;35.39;27.73
46045;BME280;31781;54.094;13.428;2022-07-21T14:13:33;101584.91;;;35.37;27.86
46045;BME280;31781;54.094;13.428;2022-07-21T14:18:36;101578.09;;;35.26;27.76
46045;BME280;31781;54.094;13.428;2022-07-21T14:23:39;101584.09;;;35.12;27.46
46045;BME280;31781;54.094;13.428;2022-07-21T14:28:47;101586.91;;;35.00;28.00
46045;BME280;31781;54.094;13.428;2022-07-21T14:33:50;101584.94;;;34.88;28.39
46045;BME280;31781;54.094;13.428;2022-07-21T14:38:54;101598.69;;;34.78;28.19
46045;BME280;31781;54.094;13.428;2022-07-21T14:44:02;101611.19;;;34.64;28.24
46045;BME280;31781;54.094;13.428;2022-07-21T14:49:05;101609.63;;;34.55;28.61
46045;BME280;31781;54.094;13.428;2022-07-21T14:54:09;101616.63;;;34.37;28.49
46045;BME280;31781;54.094;13.428;2022-07-21T14:59:17;101633.53;;;34.25;28.88
46045;BME280;31781;54.094;13.428;2022-07-21T15:04:19;101653.38;;;34.16;29.23
46045;BME280;31781;54.094;13.428;2022-07-21T15:09:22;101639.66;;;34.06;29.83
46045;BME280;31781;54.094;13.428;2022-07-21T15:14:30;101647.03;;;33.98;29.74
46045;BME280;31781;54.094;13.428;2022-07-21T15:19:33;101648.31;;;33.89;29.74
46045;BME280;31781;54.094;13.428;2022-07-21T15:24:36;101647.88;;;33.78;30.21
46045;BME280;31781;54.094;13.428;2022-07-21T15:29:45;101656.28;;;33.66;30.14
46045;BME280;31781;54.094;13.428;2022-07-21T15:34:48;101662.50;;;33.51;30.34
46045;BME280;31781;54.094;13.428;2022-07-21T15:39:51;101658.59;;;33.35;30.80
46045;BME280;31781;54.094;13.428;2022-07-21T15:44:59;101639.09;;;33.21;30.69
46045;BME280;31781;54.094;13.428;2022-07-21T15:50:03;101644.44;;;33.14;31.53
46045;BME280;31781;54.094;13.428;2022-07-21T15:55:21;101617.56;;;33.16;33.52
46045;BME280;31781;54.094;13.428;2022-07-21T16:00:24;101615.94;;;33.07;34.49
46045;BME280;31781;54.094;13.428;2022-07-21T16:05:27;101629.00;;;33.11;36.39
46045;BME280;31781;54.094;13.428;2022-07-21T16:10:35;101614.09;;;33.11;33.79
46045;BME280;31781;54.094;13.428;2022-07-21T16:15:38;101623.19;;;33.08;32.85
46045;BME280;31781;54.094;13.428;2022-07-21T16:20:41;101605.50;;;32.99;33.70
46045;BME280;31781;54.094;13.428;2022-07-21T16:25:49;101604.06;;;32.93;32.96
46045;BME280;31781;54.094;13.428;2022-07-21T16:30:52;101598.16;;;32.77;33.26
46045;BME280;31781;54.094;13.428;2022-07-21T16:35:54;101582.94;;;32.61;33.80
46045;BME280;31781;54.094;13.428;2022-07-21T16:41:03;101559.44;;;32.48;33.78
46045;BME280;31781;54.094;13.428;2022-07-21T16:46:06;101556.66;;;32.40;33.71
46045;BME280;31781;54.094;13.428;2022-07-21T16:51:08;101556.34;;;32.32;34.75
46045;BME280;31781;54.094;13.428;2022-07-21T16:56:16;101557.66;;;32.35;34.61
46045;BME280;31781;54.094;13.428;2022-07-21T17:01:20;101562.97;;;32.37;33.74
46045;BME280;31781;54.094;13.428;2022-07-21T17:06:23;101561.78;;;32.38;33.88
46045;BME280;31781;54.094;13.428;2022-07-21T17:11:31;101565.09;;;32.40;33.98
46045;BME280;31781;54.094;13.428;2022-07-21T17:16:34;101569.91;;;32.39;33.32
46045;BME280;31781;54.094;13.428;2022-07-21T17:21:37;101576.53;;;32.34;33.83
46045;BME280;31781;54.094;13.428;2022-07-21T17:26:45;101563.31;;;32.26;33.17
46045;BME280;31781;54.094;13.428;2022-07-21T17:31:48;101557.53;;;32.23;32.64
46045;BME280;31781;54.094;13.428;2022-07-21T17:36:51;101541.28;;;32.20;32.86
46045;BME280;31781;54.094;13.428;2022-07-21T17:41:59;101524.75;;;32.18;32.08
46045;BME280;31781;54.094;13.428;2022-07-21T17:47:18;101526.34;;;32.37;32.53
46045;BME280;31781;54.094;13.428;2022-07-21T17:52:21;101534.28;;;32.43;32.61
46045;BME280;31781;54.094;13.428;2022-07-21T17:57:24;101525.00;;;32.34;32.33
46045;BME280;31781;54.094;13.428;2022-07-21T18:02:32;101530.88;;;32.12;33.26
46045;BME280;31781;54.094;13.428;2022-07-21T18:07:35;101539.34;;;31.86;33.39
46045;BME280;31781;54.094;13.428;2022-07-21T18:12:38;101550.81;;;31.55;34.30
46045;BME280;31781;54.094;13.428;2022-07-21T18:17:46;101557.00;;;31.26;34.69
46045;BME280;31781;54.094;13.428;2022-07-21T18:22:49;101545.41;;;31.02;34.57
46045;BME280;31781;54.094;13.428;2022-07-21T18:27:52;101550.44;;;30.74;35.68
46045;BME280;31781;54.094;13.428;2022-07-21T18:38:29;101565.06;;;30.32;35.27
46045;BME280;31781;54.094;13.428;2022-07-21T18:43:32;101572.31;;;30.02;36.42
46045;BME280;31781;54.094;13.428;2022-07-21T18:53:54;101582.31;;;29.59;36.78
46045;BME280;31781;54.094;13.428;2022-07-21T18:58:57;101588.31;;;29.30;37.72
46045;BME280;31781;54.094;13.428;2022-07-21T19:04:00;101577.84;;;29.08;39.30
46045;BME280;31781;54.094;13.428;2022-07-21T19:14:26;101573.78;;;28.73;38.74
46045;BME280;31781;54.094;13.428;2022-07-21T19:19:29;101583.56;;;28.43;39.69
46045;BME280;31781;54.094;13.428;2022-07-21T19:24:31;101577.22;;;28.24;41.18
46045;BME280;31781;54.094;13.428;2022-07-21T19:29:39;101594.59;;;28.08;41.31
46045;BME280;31781;54.094;13.428;2022-07-21T19:34:43;101587.25;;;27.93;40.36
46045;BME280;31781;54.094;13.428;2022-07-21T19:39:47;101595.87;;;27.78;41.89
46045;BME280;31781;54.094;13.428;2022-07-21T19:44:55;101611.44;;;27.65;42.29
46045;BME280;31781;54.094;13.428;2022-07-21T19:55:17;101624.56;;;27.46;41.02
46045;BME280;31781;54.094;13.428;2022-07-21T20:00:21;101648.03;;;27.26;42.54
46045;BME280;31781;54.094;13.428;2022-07-21T20:05:24;101654.41;;;27.08;44.52
46045;BME280;31781;54.094;13.428;2022-07-21T20:10:32;101656.87;;;26.86;44.72
46045;BME280;31781;54.094;13.428;2022-07-21T20:15:35;101653.38;;;26.70;43.46
46045;BME280;31781;54.094;13.428;2022-07-21T20:20:39;101654.37;;;26.55;44.78
46045;BME280;31781;54.094;13.428;2022-07-21T20:25:58;101654.72;;;26.49;42.75
46045;BME280;31781;54.094;13.428;2022-07-21T20:31:21;101653.22;;;26.28;43.50
46045;BME280;31781;54.094;13.428;2022-07-21T20:36:24;101636.59;;;26.12;44.90
46045;BME280;31781;54.094;13.428;2022-07-21T20:41:42;101625.47;;;26.07;42.94
46045;BME280;31781;54.094;13.428;2022-07-21T20:46:45;101623.13;;;25.86;43.92
46045;BME280;31781;54.094;13.428;2022-07-21T20:51:48;101633.78;;;25.74;45.26
46045;BME280;31781;54.094;13.428;2022-07-21T20:56:56;101627.19;;;25.59;45.41
46045;BME280;31781;54.094;13.428;2022-07-21T21:02:15;101612.16;;;25.50;43.61
46045;BME280;31781;54.094;13.428;2022-07-21T21:07:18;101607.22;;;25.42;44.58
46045;BME280;31781;54.094;13.428;2022-07-21T21:12:26;101605.88;;;25.35;44.66
46045;BME280;31781;54.094;13.428;2022-07-21T21:17:29;101610.59;;;25.29;43.41
46045;BME280;31781;54.094;13.428;2022-07-21T21:22:32;101616.50;;;25.23;44.83
46045;BME280;31781;54.094;13.428;2022-07-21T21:27:40;101615.69;;;25.17;44.93
46045;BME280;31781;54.094;13.428;2022-07-21T21:32:43;101623.50;;;25.10;43.83
46045;BME280;31781;54.094;13.428;2022-07-21T21:43:04;101620.75;;;25.00;43.02
46045;BME280;31781;54.094;13.428;2022-07-21T21:48:13;101617.47;;;24.83;43.99
46045;BME280;31781;54.094;13.428;2022-07-21T21:58:35;101630.00;;;24.70;43.58
46045;BME280;31781;54.094;13.428;2022-07-21T22:03:37;101633.66;;;24.55;44.54
46045;BME280;31781;54.094;13.428;2022-07-21T22:08:40;101632.28;;;24.48;45.96
46045;BME280;31781;54.094;13.428;2022-07-21T22:13:48;101642.00;;;24.40;45.99
46045;BME280;31781;54.094;13.428;2022-07-21T22:24:10;101652.59;;;24.38;43.72
46045;BME280;31781;54.094;13.428;2022-07-21T22:29:12;101667.31;;;24.29;44.99
46045;BME280;31781;54.094;13.428;2022-07-21T22:34:20;101667.63;;;24.22;46.83
46045;BME280;31781;54.094;13.428;2022-07-21T22:39:28;101674.00;;;24.17;46.82
46045;BME280;31781;54.094;13.428;2022-07-21T22:44:31;101658.41;;;24.11;45.28
46045;BME280;31781;54.094;13.428;2022-07-21T22:49:34;101653.97;;;24.05;46.50
46045;BME280;31781;54.094;13.428;2022-07-21T22:54:42;101652.25;;;23.99;46.85
46045;BME280;31781;54.094;13.428;2022-07-21T22:59:45;101648.66;;;23.94;45.84
46045;BME280;31781;54.094;13.428;2022-07-21T23:04:48;101658.09;;;23.88;47.14
46045;BME280;31781;54.094;13.428;2022-07-21T23:15:15;101644.47;;;23.86;44.42
46045;BME280;31781;54.094;13.428;2022-07-21T23:20:18;101635.28;;;23.75;45.91
46045;BME280;31781;54.094;13.428;2022-07-21T23:25:21;101643.34;;;23.72;47.50
46045;BME280;31781;54.094;13.428;2022-07-21T23:30:29;101638.59;;;23.67;47.74
46045;BME280;31781;54.094;13.428;2022-07-21T23:35:32;101640.81;;;23.65;45.96
46045;BME280;31781;54.094;13.428;2022-07-21T23:40:35;101643.31;;;23.62;47.71
46045;BME280;31781;54.094;13.428;2022-07-21T23:45:43;101633.84;;;23.58;47.99
46045;BME280;31781;54.094;13.428;2022-07-21T23:50:46;101645.50;;;23.55;46.26
46045;BME280;31781;54.094;13.428;2022-07-21T23:55:49;101643.84;;;23.49;48.27
